Christina O — C6FN7 — position and weather

sailwx.info

Track history (hours):
 
Tides and Currents Weather Stations Pressure Air Temp Water Temp Dewpoint Dewpoint Depression Visibility Wind Speed Wind Dir Waves Ship Positions

Christina O

Operator: V Ships Leisure SAM

Last reported at 2017-May-25 02:58 UTC. Time now 2017-May-25 03:01 UTC.
Position N 55°59' W 003°11'.

Length 186 m; draft 6.1 m.

Type: Passenger vessel. MMSI: 308322000.

Date/timePositionNaut miles runAvg speedWind from/ knotsBaromVisibWave heightAir tempDewpointWater temp
2017-May-25 02:58N 55°59' W 003°11'0 0.0
2017-May-25 02:28N 55°59' W 003°11'0 0.0
2017-May-25 01:58N 55°59' W 003°11'0 0.0
2017-May-25 01:28N 55°59' W 003°11'0 0.0
2017-May-25 00:58N 55°59' W 003°11'0 0.0
2017-May-25 00:28N 55°59' W 003°11'0 0.0
2017-May-24 23:59N 55°59' W 003°11'0 0.0
2017-May-24 23:28N 55°59' W 003°11'0 0.0
2017-May-24 22:58N 55°59' W 003°11'0 0.0
2017-May-24 22:28N 55°59' W 003°11'0 0.0
2017-May-24 21:58N 55°59' W 003°11'0 0.0
2017-May-24 21:29N 55°59' W 003°11'0 0.0
2017-May-24 20:58N 55°59' W 003°11'0 0.0
2017-May-24 20:28N 55°59' W 003°11'0 0.0
2017-May-24 19:58N 55°59' W 003°11'0 0.0
2017-May-24 19:28N 55°59' W 003°11'0 0.0
2017-May-24 18:58N 55°59' W 003°11'0 0.0
2017-May-24 18:28N 55°59' W 003°11'0 0.0
2017-May-24 17:58N 55°59' W 003°11'0 0.0
2017-May-24 17:29N 55°59' W 003°11'0 0.0
2017-May-24 16:58N 55°59' W 003°11'0 0.0
2017-May-24 16:28N 55°59' W 003°11'0 0.0
2017-May-24 15:58N 55°59' W 003°11'0 0.0
2017-May-24 15:28N 55°59' W 003°11'0 0.0
2017-May-24 14:58N 55°59' W 003°11'0 0.0
2017-May-24 14:28N 55°59' W 003°11'0 0.0
2017-May-24 13:28N 55°59' W 003°11'0 0.0
2017-May-24 12:59N 55°59' W 003°11'0 0.1
2017-May-24 12:31N 55°59' W 003°11'0 0.7
2017-May-24 12:00N 55°59' W 003°11'0 0.7
2017-May-24 11:30N 55°60' W 003°11'2 4.0
2017-May-24 11:00N 56°01' W 003°08'612.5
2017-May-24 10:30N 56°04' W 002°59'713.3
2017-May-24 10:01N 56°07' W 002°48'714.5
2017-May-24 09:31N 56°08' W 002°35'714.9
2017-May-24 09:01N 56°05' W 002°23'713.6
2017-May-24 08:30N 56°01' W 002°12'612.9
2017-May-24 08:01N 55°58' W 002°03'613.0
2017-May-24 07:30N 55°53' W 001°54'612.9
2017-May-24 07:01N 55°49' W 001°45'713.1
2017-May-24 06:30N 55°45' W 001°36'713.0
2017-May-24 06:00N 55°40' W 001°28'713.4
2017-May-24 05:30N 55°34' W 001°22'713.3
2017-May-24 05:00N 55°29' W 001°16'713.2
2017-May-24 04:30N 55°23' W 001°11'713.2
2017-May-24 04:00N 55°17' W 001°05'713.2
2017-May-24 03:30N 55°11' W 000°59'713.4
2017-May-24 03:00N 55°06' W 000°53'713.2
2017-May-24 02:30N 54°60' W 000°47'713.2
2017-May-24 02:00N 54°54' W 000°41'1913.3
2017-May-24 00:33N 54°37' W 000°24'113.2
2017-May-24 00:30N 54°37' W 000°24'613.0
2017-May-24 00:00N 54°31' W 000°18'713.2
2017-May-23 23:30N 54°26' W 000°13'713.2
2017-May-23 23:00N 54°20' W 000°07'713.2
2017-May-23 22:30N 54°14' W 000°01'713.2
2017-May-23 22:00N 54°09' E 000°04'713.3
2017-May-23 21:30N 54°03' E 000°10'6012.9
2017-May-23 16:51N 53°16' E 001°14'513.0
2017-May-23 16:30N 53°13' E 001°19'612.8
2017-May-23 16:00N 53°09' E 001°27'612.6
2017-May-23 15:30N 53°05' E 001°35'613.0
2017-May-23 15:00N 53°00' E 001°43'613.0
2017-May-23 14:30N 52°58' E 001°53'1212.4
2017-May-23 13:30N 52°50' E 002°09'713.2
2017-May-23 13:00N 52°44' E 002°14'612.9
2017-May-23 12:30N 52°38' E 002°17'713.1
2017-May-23 12:00N 52°31' E 002°19'4613.3
2017-May-23 08:33N 51°47' E 002°36'113.2
2017-May-23 08:30N 51°46' E 002°35'713.2
2017-May-23 08:00N 51°41' E 002°28'613.2
2017-May-23 07:31N 51°36' E 002°21'913.2
2017-May-23 06:50N 51°30' E 002°12'413.3
2017-May-23 06:30N 51°26' E 002°07'713.2
2017-May-23 06:00N 51°21' E 002°01'713.5
2017-May-23 05:31N 51°16' E 001°53'713.4
2017-May-23 05:01N 51°11' E 001°46'612.8
2017-May-23 04:31N 51°06' E 001°40'612.8
2017-May-23 04:00N 51°01' E 001°35'613.0
2017-May-23 03:30N 50°55' E 001°29'713.1
2017-May-23 03:00N 50°49' E 001°25'613.0
2017-May-23 02:30N 50°43' E 001°21'713.0
2017-May-23 02:00N 50°39' E 001°13'712.9
2017-May-23 01:29N 50°35' E 001°05'1412.5
2017-May-23 00:24N 50°29' E 000°46'612.6
2017-May-22 23:57N 50°27' E 000°37'613.1
2017-May-22 23:30N 50°26' E 000°28'613.1
2017-May-22 23:00N 50°24' E 000°18'713.1
2017-May-22 22:30N 50°22' E 000°09'713.1
2017-May-22 22:00N 50°21' W 000°01'713.1
2017-May-22 21:30N 50°20' W 000°12'713.1
2017-May-22 21:00N 50°20' W 000°22'613.0
2017-May-22 20:30N 50°25' W 000°28'612.8
2017-May-22 20:00N 50°29' W 000°36'713.0
2017-May-22 19:30N 50°34' W 000°43'613.0
2017-May-22 19:00N 50°38' W 000°51'611.9
2017-May-22 18:30N 50°42' W 000°58'611.8
2017-May-22 18:00N 50°45' W 001°06'713.8
2017-May-22 17:31N 50°46' W 001°17'5 9.3
2017-May-22 17:01N 50°51' W 001°20'4 8.7
2017-May-22 16:31N 50°54' W 001°25'1 1.6
2017-May-22 16:00N 50°54' W 001°26'0 0.0
2017-May-22 15:30N 50°54' W 001°26'0 0.0
2017-May-22 15:00N 50°54' W 001°26'0 0.0
2017-May-22 14:00N 50°54' W 001°26'0 0.0
2017-May-22 13:30N 50°54' W 001°26'0 0.0
2017-May-22 13:00N 50°54' W 001°26'0 0.0
2017-May-22 12:30N 50°54' W 001°26'0 0.0
2017-May-22 12:00N 50°54' W 001°26'0 0.0
2017-May-22 11:30N 50°54' W 001°26'0 0.0
2017-May-22 11:00N 50°54' W 001°26'0 0.0
2017-May-22 10:30N 50°54' W 001°26'0 1.0
2017-May-22 10:00N 50°54' W 001°26'0 1.0
2017-May-22 09:30N 50°54' W 001°26'0 0.0
2017-May-22 09:00N 50°54' W 001°26'0 0.0
2017-May-22 08:30N 50°54' W 001°26'0 0.0
2017-May-22 08:00N 50°54' W 001°26'0 0.0
2017-May-22 07:30N 50°54' W 001°26'0 0.0
2017-May-22 07:00N 50°54' W 001°26'0 0.0
2017-May-22 06:30N 50°54' W 001°26'0 0.0
2017-May-22 06:00N 50°54' W 001°26'1 1.7
2017-May-22 05:31N 50°54' W 001°25'4 8.4
2017-May-22 05:00N 50°51' W 001°20'5 9.5
2017-May-22 04:31N 50°47' W 001°17'815.3
2017-May-22 04:00N 50°45' W 001°05'612.6
2017-May-22 03:31N 50°40' W 000°59'612.1
2017-May-22 03:00N 50°34' W 000°59'612.6
2017-May-22 02:30N 50°28' W 001°03'612.9
2017-May-22 02:00N 50°23' W 001°10'612.8
2017-May-22 01:30N 50°18' W 001°16'1513.0
2017-May-22 00:20N 50°07' W 001°32'412.3
2017-May-22 00:00N 50°04' W 001°36'714.6
2017-May-21 23:30N 49°58' W 001°44'814.5
2017-May-21 22:58N 49°52' W 001°52'613.8
2017-May-21 22:31N 49°48' W 001°58'713.2
2017-May-21 22:00N 49°42' W 002°04'713.4
2017-May-21 21:27N 49°35' W 002°08'613.4
2017-May-21 20:58N 49°29' W 002°12'613.3
2017-May-21 20:30N 49°24' W 002°16'712.9
2017-May-21 19:56N 49°18' W 002°23'713.3
2017-May-21 19:26N 49°11' W 002°23'36 4.3
2017-May-21 11:07N 48°38' W 002°02'0 0.0
2017-May-21 10:40N 48°38' W 002°02'1 1.3
2017-May-21 10:16N 48°39' W 002°03'2 0.4
2017-May-21 04:18N 48°40' W 002°05'3 9.3
2017-May-21 04:00N 48°43' W 002°07'713.0
2017-May-21 03:30N 48°47' W 002°15'915.2
2017-May-21 02:54N 48°51' W 002°27'615.8
2017-May-21 02:30N 48°54' W 002°36'815.7
2017-May-21 02:00N 48°57' W 002°46'816.0
2017-May-21 01:30N 48°60' W 002°58'1016.4
2017-May-21 00:52N 49°00' W 003°14'816.6
2017-May-21 00:22N 49°00' W 003°26'2716.5
2017-May-20 22:45N 48°53' W 004°06'416.4
2017-May-20 22:30N 48°52' W 004°12'816.3
2017-May-20 22:00N 48°49' W 004°23'816.4
2017-May-20 21:30N 48°47' W 004°35'816.5
2017-May-20 21:00N 48°44' W 004°47'816.5
2017-May-20 20:30N 48°42' W 004°59'816.3
2017-May-20 20:00N 48°39' W 005°10'816.0
2017-May-20 19:30N 48°34' W 005°19'815.9
2017-May-20 19:00N 48°26' W 005°24'916.4
2017-May-20 18:29N 48°18' W 005°25'816.6
2017-May-20 18:01N 48°10' W 005°24'916.3
2017-May-20 17:28N 48°01' W 005°20'715.6
2017-May-20 17:01N 47°55' W 005°16'815.3
2017-May-20 16:30N 47°48' W 005°11'816.4
2017-May-20 16:00N 47°42' W 005°03'816.5
2017-May-20 15:30N 47°36' W 004°54'18916.2
2017-May-20 03:49N 45°38' W 001°19'618.1
2017-May-20 03:29N 45°40' W 001°11'917.6
2017-May-20 02:59N 45°33' W 001°02'918.7
2017-May-20 02:30N 45°27' W 000°53'816.5
2017-May-20 02:01N 45°20' W 000°47'6 0.1
2017-May-18 07:18N 45°25' W 000°52'413.4
2017-May-18 07:01N 45°28' W 000°55'713.3
2017-May-18 06:30N 45°33' W 001°01'713.6
2017-May-18 06:00N 45°38' W 001°07'611.3
2017-May-18 05:30N 45°39' W 001°15'711.9
2017-May-18 04:58N 45°36' W 001°23'2 3.9
2017-May-18 04:30N 45°34' W 001°25'150 7.7
2017-May-17 09:03N 43°22' W 003°03'012.9
2017-May-17 09:00N 43°22' W 003°04'712.3
2017-May-17 08:25N 43°27' W 003°11'3014.8
2017-May-17 06:22N 43°38' W 003°50'615.4
2017-May-17 05:59N 43°39' W 003°59'715.6
2017-May-17 05:30N 43°39' W 004°09'1615.5
2017-May-17 04:29N 43°40' W 004°30'915.6
2017-May-17 03:57N 43°42' W 004°42'715.5
2017-May-17 03:30N 43°42' W 004°51'815.8
2017-May-17 03:00N 43°43' W 005°02'815.9
2017-May-17 02:30N 43°43' W 005°13'815.9
2017-May-17 02:00N 43°43' W 005°24'815.5
2017-May-17 01:30N 43°44' W 005°35'815.8
2017-May-17 01:00N 43°45' W 005°46'815.8
2017-May-17 00:30N 43°46' W 005°56'  
Track history (hours):
 
Tides and Currents Weather Stations Pressure Air Temp Water Temp Dewpoint Dewpoint Depression Visibility Wind Speed Wind Dir Waves Ship Positions

Christina O

Operator: V Ships Leisure SAM

Last reported at 2017-May-25 02:58 UTC. Time now 2017-May-25 03:01 UTC.
Position N 55°59' W 003°11'.

Length 186 m; draft 6.1 m.

Type: Passenger vessel. MMSI: 308322000.

Date/timePositionNaut miles runAvg speedWind from/ knotsBaromVisibWave heightAir tempDewpointWater temp
2017-May-25 02:58N 55°59' W 003°11'0 0.0
2017-May-25 02:28N 55°59' W 003°11'0 0.0
2017-May-25 01:58N 55°59' W 003°11'0 0.0
2017-May-25 01:28N 55°59' W 003°11'0 0.0
2017-May-25 00:58N 55°59' W 003°11'0 0.0
2017-May-25 00:28N 55°59' W 003°11'0 0.0
2017-May-24 23:59N 55°59' W 003°11'0 0.0
2017-May-24 23:28N 55°59' W 003°11'0 0.0
2017-May-24 22:58N 55°59' W 003°11'0 0.0
2017-May-24 22:28N 55°59' W 003°11'0 0.0
2017-May-24 21:58N 55°59' W 003°11'0 0.0
2017-May-24 21:29N 55°59' W 003°11'0 0.0
2017-May-24 20:58N 55°59' W 003°11'0 0.0
2017-May-24 20:28N 55°59' W 003°11'0 0.0
2017-May-24 19:58N 55°59' W 003°11'0 0.0
2017-May-24 19:28N 55°59' W 003°11'0 0.0
2017-May-24 18:58N 55°59' W 003°11'0 0.0
2017-May-24 18:28N 55°59' W 003°11'0 0.0
2017-May-24 17:58N 55°59' W 003°11'0 0.0
2017-May-24 17:29N 55°59' W 003°11'0 0.0
2017-May-24 16:58N 55°59' W 003°11'0 0.0
2017-May-24 16:28N 55°59' W 003°11'0 0.0
2017-May-24 15:58N 55°59' W 003°11'0 0.0
2017-May-24 15:28N 55°59' W 003°11'0 0.0
2017-May-24 14:58N 55°59' W 003°11'0 0.0
2017-May-24 14:28N 55°59' W 003°11'0 0.0
2017-May-24 13:28N 55°59' W 003°11'0 0.0
2017-May-24 12:59N 55°59' W 003°11'0 0.1
2017-May-24 12:31N 55°59' W 003°11'0 0.7
2017-May-24 12:00N 55°59' W 003°11'0 0.7
2017-May-24 11:30N 55°60' W 003°11'2 4.0
2017-May-24 11:00N 56°01' W 003°08'612.5
2017-May-24 10:30N 56°04' W 002°59'713.3
2017-May-24 10:01N 56°07' W 002°48'714.5
2017-May-24 09:31N 56°08' W 002°35'714.9
2017-May-24 09:01N 56°05' W 002°23'713.6
2017-May-24 08:30N 56°01' W 002°12'612.9
2017-May-24 08:01N 55°58' W 002°03'613.0
2017-May-24 07:30N 55°53' W 001°54'612.9
2017-May-24 07:01N 55°49' W 001°45'713.1
2017-May-24 06:30N 55°45' W 001°36'713.0
2017-May-24 06:00N 55°40' W 001°28'713.4
2017-May-24 05:30N 55°34' W 001°22'713.3
2017-May-24 05:00N 55°29' W 001°16'713.2
2017-May-24 04:30N 55°23' W 001°11'713.2
2017-May-24 04:00N 55°17' W 001°05'713.2
2017-May-24 03:30N 55°11' W 000°59'713.4
2017-May-24 03:00N 55°06' W 000°53'713.2
2017-May-24 02:30N 54°60' W 000°47'713.2
2017-May-24 02:00N 54°54' W 000°41'1913.3
2017-May-24 00:33N 54°37' W 000°24'113.2
2017-May-24 00:30N 54°37' W 000°24'613.0
2017-May-24 00:00N 54°31' W 000°18'713.2
2017-May-23 23:30N 54°26' W 000°13'713.2
2017-May-23 23:00N 54°20' W 000°07'713.2
2017-May-23 22:30N 54°14' W 000°01'713.2
2017-May-23 22:00N 54°09' E 000°04'713.3
2017-May-23 21:30N 54°03' E 000°10'6012.9
2017-May-23 16:51N 53°16' E 001°14'513.0
2017-May-23 16:30N 53°13' E 001°19'612.8
2017-May-23 16:00N 53°09' E 001°27'612.6
2017-May-23 15:30N 53°05' E 001°35'613.0
2017-May-23 15:00N 53°00' E 001°43'613.0
2017-May-23 14:30N 52°58' E 001°53'1212.4
2017-May-23 13:30N 52°50' E 002°09'713.2
2017-May-23 13:00N 52°44' E 002°14'612.9
2017-May-23 12:30N 52°38' E 002°17'713.1
2017-May-23 12:00N 52°31' E 002°19'4613.3
2017-May-23 08:33N 51°47' E 002°36'113.2
2017-May-23 08:30N 51°46' E 002°35'713.2
2017-May-23 08:00N 51°41' E 002°28'613.2
2017-May-23 07:31N 51°36' E 002°21'913.2
2017-May-23 06:50N 51°30' E 002°12'413.3
2017-May-23 06:30N 51°26' E 002°07'713.2
2017-May-23 06:00N 51°21' E 002°01'713.5
2017-May-23 05:31N 51°16' E 001°53'713.4
2017-May-23 05:01N 51°11' E 001°46'612.8
2017-May-23 04:31N 51°06' E 001°40'612.8
2017-May-23 04:00N 51°01' E 001°35'613.0
2017-May-23 03:30N 50°55' E 001°29'713.1
2017-May-23 03:00N 50°49' E 001°25'613.0
2017-May-23 02:30N 50°43' E 001°21'713.0
2017-May-23 02:00N 50°39' E 001°13'712.9
2017-May-23 01:29N 50°35' E 001°05'1412.5
2017-May-23 00:24N 50°29' E 000°46'612.6
2017-May-22 23:57N 50°27' E 000°37'613.1
2017-May-22 23:30N 50°26' E 000°28'613.1
2017-May-22 23:00N 50°24' E 000°18'713.1
2017-May-22 22:30N 50°22' E 000°09'713.1
2017-May-22 22:00N 50°21' W 000°01'713.1
2017-May-22 21:30N 50°20' W 000°12'713.1
2017-May-22 21:00N 50°20' W 000°22'613.0
2017-May-22 20:30N 50°25' W 000°28'612.8
2017-May-22 20:00N 50°29' W 000°36'713.0
2017-May-22 19:30N 50°34' W 000°43'613.0
2017-May-22 19:00N 50°38' W 000°51'611.9
2017-May-22 18:30N 50°42' W 000°58'611.8
2017-May-22 18:00N 50°45' W 001°06'713.8
2017-May-22 17:31N 50°46' W 001°17'5 9.3
2017-May-22 17:01N 50°51' W 001°20'4 8.7
2017-May-22 16:31N 50°54' W 001°25'1 1.6
2017-May-22 16:00N 50°54' W 001°26'0 0.0
2017-May-22 15:30N 50°54' W 001°26'0 0.0
2017-May-22 15:00N 50°54' W 001°26'0 0.0
2017-May-22 14:00N 50°54' W 001°26'0 0.0
2017-May-22 13:30N 50°54' W 001°26'0 0.0
2017-May-22 13:00N 50°54' W 001°26'0 0.0
2017-May-22 12:30N 50°54' W 001°26'0 0.0
2017-May-22 12:00N 50°54' W 001°26'0 0.0
2017-May-22 11:30N 50°54' W 001°26'0 0.0
2017-May-22 11:00N 50°54' W 001°26'0 0.0
2017-May-22 10:30N 50°54' W 001°26'0 1.0
2017-May-22 10:00N 50°54' W 001°26'0 1.0
2017-May-22 09:30N 50°54' W 001°26'0 0.0
2017-May-22 09:00N 50°54' W 001°26'0 0.0
2017-May-22 08:30N 50°54' W 001°26'0 0.0
2017-May-22 08:00N 50°54' W 001°26'0 0.0
2017-May-22 07:30N 50°54' W 001°26'0 0.0
2017-May-22 07:00N 50°54' W 001°26'0 0.0
2017-May-22 06:30N 50°54' W 001°26'0 0.0
2017-May-22 06:00N 50°54' W 001°26'1 1.7
2017-May-22 05:31N 50°54' W 001°25'4 8.4
2017-May-22 05:00N 50°51' W 001°20'5 9.5
2017-May-22 04:31N 50°47' W 001°17'815.3
2017-May-22 04:00N 50°45' W 001°05'612.6
2017-May-22 03:31N 50°40' W 000°59'612.1
2017-May-22 03:00N 50°34' W 000°59'612.6
2017-May-22 02:30N 50°28' W 001°03'612.9
2017-May-22 02:00N 50°23' W 001°10'612.8
2017-May-22 01:30N 50°18' W 001°16'1513.0
2017-May-22 00:20N 50°07' W 001°32'412.3
2017-May-22 00:00N 50°04' W 001°36'714.6
2017-May-21 23:30N 49°58' W 001°44'814.5
2017-May-21 22:58N 49°52' W 001°52'613.8
2017-May-21 22:31N 49°48' W 001°58'713.2
2017-May-21 22:00N 49°42' W 002°04'713.4
2017-May-21 21:27N 49°35' W 002°08'613.4
2017-May-21 20:58N 49°29' W 002°12'613.3
2017-May-21 20:30N 49°24' W 002°16'712.9
2017-May-21 19:56N 49°18' W 002°23'713.3
2017-May-21 19:26N 49°11' W 002°23'36 4.3
2017-May-21 11:07N 48°38' W 002°02'0 0.0
2017-May-21 10:40N 48°38' W 002°02'1 1.3
2017-May-21 10:16N 48°39' W 002°03'2 0.4
2017-May-21 04:18N 48°40' W 002°05'3 9.3
2017-May-21 04:00N 48°43' W 002°07'713.0
2017-May-21 03:30N 48°47' W 002°15'915.2
2017-May-21 02:54N 48°51' W 002°27'615.8
2017-May-21 02:30N 48°54' W 002°36'815.7
2017-May-21 02:00N 48°57' W 002°46'816.0
2017-May-21 01:30N 48°60' W 002°58'1016.4
2017-May-21 00:52N 49°00' W 003°14'816.6
2017-May-21 00:22N 49°00' W 003°26'2716.5
2017-May-20 22:45N 48°53' W 004°06'416.4
2017-May-20 22:30N 48°52' W 004°12'816.3
2017-May-20 22:00N 48°49' W 004°23'816.4
2017-May-20 21:30N 48°47' W 004°35'816.5
2017-May-20 21:00N 48°44' W 004°47'816.5
2017-May-20 20:30N 48°42' W 004°59'816.3
2017-May-20 20:00N 48°39' W 005°10'816.0
2017-May-20 19:30N 48°34' W 005°19'815.9
2017-May-20 19:00N 48°26' W 005°24'916.4
2017-May-20 18:29N 48°18' W 005°25'816.6
2017-May-20 18:01N 48°10' W 005°24'916.3
2017-May-20 17:28N 48°01' W 005°20'715.6
2017-May-20 17:01N 47°55' W 005°16'815.3
2017-May-20 16:30N 47°48' W 005°11'816.4
2017-May-20 16:00N 47°42' W 005°03'816.5
2017-May-20 15:30N 47°36' W 004°54'18916.2
2017-May-20 03:49N 45°38' W 001°19'618.1
2017-May-20 03:29N 45°40' W 001°11'917.6
2017-May-20 02:59N 45°33' W 001°02'918.7
2017-May-20 02:30N 45°27' W 000°53'816.5
2017-May-20 02:01N 45°20' W 000°47'6 0.1
2017-May-18 07:18N 45°25' W 000°52'413.4
2017-May-18 07:01N 45°28' W 000°55'713.3
2017-May-18 06:30N 45°33' W 001°01'713.6
2017-May-18 06:00N 45°38' W 001°07'611.3
2017-May-18 05:30N 45°39' W 001°15'711.9
2017-May-18 04:58N 45°36' W 001°23'2 3.9
2017-May-18 04:30N 45°34' W 001°25'150 7.7
2017-May-17 09:03N 43°22' W 003°03'012.9
2017-May-17 09:00N 43°22' W 003°04'712.3
2017-May-17 08:25N 43°27' W 003°11'3014.8
2017-May-17 06:22N 43°38' W 003°50'615.4
2017-May-17 05:59N 43°39' W 003°59'715.6
2017-May-17 05:30N 43°39' W 004°09'1615.5
2017-May-17 04:29N 43°40' W 004°30'915.6
2017-May-17 03:57N 43°42' W 004°42'715.5
2017-May-17 03:30N 43°42' W 004°51'815.8
2017-May-17 03:00N 43°43' W 005°02'815.9
2017-May-17 02:30N 43°43' W 005°13'815.9
2017-May-17 02:00N 43°43' W 005°24'815.5
2017-May-17 01:30N 43°44' W 005°35'815.8
2017-May-17 01:00N 43°45' W 005°46'815.8
2017-May-17 00:30N 43°46' W 005°56'  

Dump ship's entire track history